Aidasol — ICPE — position and weather

sailwx.info

Track history (hours):
 
Tides and Currents Weather Stations Pressure Air Temp Water Temp Dewpoint Dewpoint Depression Visibility Wind Speed Wind Dir Waves Ship Positions

Aidasol

Last reported at 2017-Nov-20 00:30 UTC. Time now 2017-Nov-20 17:34 UTC.
Position N 28°14' W 015°24'.

Length 253 m; draft 7.3 m.

Type: Passenger vessel. MMSI: 247302900.

Date/timePositionNaut miles runAvg speedWind from/ knotsBaromVisibWave heightAir tempDewpointWater temp
2017-Nov-20 00:30N 28°14' W 015°24'611.9
2017-Nov-20 00:00N 28°09' W 015°22'3 6.2
2017-Nov-19 23:28N 28°08' W 015°25'0 0.0
2017-Nov-19 22:58N 28°08' W 015°25'0 0.0
2017-Nov-19 22:28N 28°08' W 015°25'0 0.0
2017-Nov-19 22:01N 28°08' W 015°25'0 0.0
2017-Nov-19 21:31N 28°08' W 015°25'0 0.0
2017-Nov-19 21:01N 28°08' W 015°25'0 0.0
2017-Nov-19 20:28N 28°08' W 015°25'0 0.0
2017-Nov-19 19:46N 28°08' W 015°25'0 0.0
2017-Nov-19 19:28N 28°08' W 015°25'0 0.0
2017-Nov-19 18:58N 28°08' W 015°25'0 0.0
2017-Nov-19 18:28N 28°08' W 015°25'0 0.0
2017-Nov-19 18:01N 28°08' W 015°25'0 0.0
2017-Nov-19 17:19N 28°08' W 015°25'0 0.0
2017-Nov-19 17:01N 28°08' W 015°25'0 0.0
2017-Nov-19 16:19N 28°08' W 015°25'0 0.0
2017-Nov-19 16:01N 28°08' W 015°25'0 0.0
2017-Nov-19 15:31N 28°08' W 015°25'0 0.0
2017-Nov-19 15:01N 28°08' W 015°25'0 0.0
2017-Nov-19 14:22N 28°08' W 015°25'0 0.0
2017-Nov-19 13:40N 28°08' W 015°25'0 0.0
2017-Nov-19 13:25N 28°08' W 015°25'0 0.0
2017-Nov-19 12:55N 28°08' W 015°25'0 0.0
2017-Nov-19 12:25N 28°08' W 015°25'0 0.0
2017-Nov-19 11:55N 28°08' W 015°25'0 0.0
2017-Nov-19 11:25N 28°08' W 015°25'0 0.0
2017-Nov-19 10:55N 28°08' W 015°25'0 0.0
2017-Nov-19 10:22N 28°08' W 015°25'0 0.0
2017-Nov-19 09:58N 28°08' W 015°25'0 0.0
2017-Nov-19 09:28N 28°08' W 015°25'0 0.0
2017-Nov-19 08:58N 28°08' W 015°25'0 0.0
2017-Nov-19 08:28N 28°08' W 015°25'0 0.0
2017-Nov-19 07:58N 28°08' W 015°25'0 0.0
2017-Nov-19 07:31N 28°08' W 015°25'0 0.0
2017-Nov-19 06:58N 28°08' W 015°25'0 0.0
2017-Nov-19 06:28N 28°08' W 015°25'0 0.0
2017-Nov-19 06:01N 28°08' W 015°25'0 0.0
2017-Nov-19 05:28N 28°08' W 015°25'0 0.0
2017-Nov-19 05:01N 28°08' W 015°25'0 0.0
2017-Nov-19 04:28N 28°08' W 015°25'0 0.0
2017-Nov-19 03:46N 28°08' W 015°25'0 0.0
2017-Nov-19 03:19N 28°08' W 015°25'0 0.0
2017-Nov-19 02:49N 28°08' W 015°25'0 0.0
2017-Nov-19 02:19N 28°08' W 015°25'0 0.0
2017-Nov-19 01:52N 28°08' W 015°25'0 0.0
2017-Nov-19 01:22N 28°08' W 015°25'0 0.0
2017-Nov-19 00:52N 28°08' W 015°25'0 0.8
2017-Nov-19 00:30N 28°08' W 015°25'2 4.0
2017-Nov-19 00:00N 28°08' W 015°23'612.7
2017-Nov-18 23:30N 28°14' W 015°23'714.7
2017-Nov-18 23:00N 28°17' W 015°31'713.7
2017-Nov-18 22:30N 28°17' W 015°38'4 8.0
2017-Nov-18 22:00N 28°16' W 015°43'4 8.0
2017-Nov-18 21:30N 28°16' W 015°47'4 8.1
2017-Nov-18 21:01N 28°16' W 015°52'4 8.2
2017-Nov-18 20:28N 28°16' W 015°57'4 8.6
2017-Nov-18 20:00N 28°19' W 016°00'11 8.5
2017-Nov-18 18:40N 28°26' W 016°10'1 8.7
2017-Nov-18 18:30N 28°27' W 016°11'3 0.2
2017-Nov-18 06:55N 28°29' W 016°14'511.0
2017-Nov-18 06:26N 28°29' W 016°08'613.9
2017-Nov-18 06:00N 28°35' W 016°04'50 2.1
2017-Nov-17 06:00N 28°44' W 016°60'815.7
2017-Nov-17 05:30N 28°46' W 016°51'916.3
2017-Nov-17 04:56N 28°47' W 016°40'716.3
2017-Nov-17 04:30N 28°48' W 016°32'915.5
2017-Nov-17 03:57N 28°50' W 016°23'1115.5
2017-Nov-17 03:13N 28°51' W 016°10'315.4
2017-Nov-17 03:00N 28°51' W 016°06'815.4
2017-Nov-17 02:30N 28°51' W 015°57'815.4
2017-Nov-17 02:00N 28°51' W 015°48'815.3
2017-Nov-17 01:30N 28°51' W 015°40'815.9
2017-Nov-17 01:00N 28°50' W 015°31'816.1
2017-Nov-17 00:30N 28°50' W 015°22'815.9
2017-Nov-17 00:00N 28°50' W 015°13'815.8
2017-Nov-16 23:29N 28°50' W 015°03'1215.6
2017-Nov-16 22:44N 28°49' W 014°50'1115.7
2017-Nov-16 22:01N 28°49' W 014°37'115.7
2017-Nov-16 21:58N 28°49' W 014°36'1015.8
2017-Nov-16 21:21N 28°49' W 014°25'715.5
2017-Nov-16 20:53N 28°49' W 014°17'615.8
2017-Nov-16 20:30N 28°48' W 014°10'34 4.8
2017-Nov-16 13:20N 28°58' W 013°32'0 0.0
2017-Nov-16 12:56N 28°58' W 013°32'0 0.0
2017-Nov-16 12:26N 28°58' W 013°32'0 0.0
2017-Nov-16 11:38N 28°58' W 013°32'0 0.0
2017-Nov-16 09:23N 28°58' W 013°32'0 0.0
2017-Nov-16 08:53N 28°58' W 013°32'0 0.0
2017-Nov-16 07:17N 28°58' W 013°32'0 1.0
2017-Nov-16 07:00N 28°58' W 013°32'4 7.7
2017-Nov-16 06:30N 28°59' W 013°28'  
2017-Nov-13 02:00N 28°30' W 015°34'4 8.5
2017-Nov-13 01:30N 28°27' W 015°32'4 8.6
2017-Nov-13 01:00N 28°23' W 015°30'4 8.5
2017-Nov-13 00:30N 28°19' W 015°28'4 8.6
2017-Nov-13 00:00N 28°15' W 015°25'4 8.3
2017-Nov-12 23:30N 28°11' W 015°23'4 8.3
2017-Nov-12 23:00N 28°07' W 015°23'2 4.6
2017-Nov-12 22:29N 28°08' W 015°25'0 0.0
2017-Nov-12 21:59N 28°08' W 015°25'0 0.0
2017-Nov-12 21:29N 28°08' W 015°25'0 0.0
2017-Nov-12 20:59N 28°08' W 015°25'0 0.0
2017-Nov-12 20:17N 28°08' W 015°25'0 0.0
2017-Nov-12 19:50N 28°08' W 015°25'0 0.0
2017-Nov-12 19:20N 28°08' W 015°25'0 0.0
2017-Nov-12 18:53N 28°08' W 015°25'0 0.0
2017-Nov-12 18:23N 28°08' W 015°25'0 0.0
2017-Nov-12 17:53N 28°08' W 015°25'0 0.0
2017-Nov-12 17:20N 28°08' W 015°25'0 0.0
2017-Nov-12 16:53N 28°08' W 015°25'0 0.0
2017-Nov-12 16:23N 28°08' W 015°25'0 0.0
2017-Nov-12 15:56N 28°08' W 015°25'0 0.0
2017-Nov-12 15:26N 28°08' W 015°25'0 0.0
2017-Nov-12 14:56N 28°08' W 015°25'0 0.0
2017-Nov-12 14:25N 28°08' W 015°25'0 0.0
2017-Nov-12 13:58N 28°08' W 015°25'0 0.0
2017-Nov-12 13:28N 28°08' W 015°25'0 0.0
2017-Nov-12 12:46N 28°08' W 015°25'0 0.0
2017-Nov-12 12:28N 28°08' W 015°25'0 0.0
2017-Nov-12 11:58N 28°08' W 015°25'0 0.0
2017-Nov-12 11:28N 28°08' W 015°25'0 0.0
2017-Nov-12 10:58N 28°08' W 015°25'0 0.0
2017-Nov-12 10:19N 28°08' W 015°25'0 0.0
2017-Nov-12 09:58N 28°08' W 015°25'0 0.0
2017-Nov-12 09:25N 28°08' W 015°25'0 0.0
2017-Nov-12 09:00N 28°08' W 015°25'0 0.0
2017-Nov-12 08:30N 28°08' W 015°25'0 0.0
2017-Nov-12 08:00N 28°08' W 015°25'0 0.0
2017-Nov-12 07:30N 28°08' W 015°25'0 0.0
2017-Nov-12 07:00N 28°08' W 015°25'0 0.0
2017-Nov-12 06:30N 28°08' W 015°25'0 0.0
2017-Nov-12 06:00N 28°08' W 015°25'0 0.0
2017-Nov-12 05:30N 28°08' W 015°25'0 0.0
2017-Nov-12 05:00N 28°08' W 015°25'0 0.0
2017-Nov-12 04:30N 28°08' W 015°25'0 0.0
2017-Nov-12 04:00N 28°08' W 015°25'0 0.0
2017-Nov-12 03:30N 28°08' W 015°25'1 2.1
2017-Nov-12 03:00N 28°07' W 015°25'5 9.3
2017-Nov-12 02:30N 28°11' W 015°22'713.9
2017-Nov-12 02:00N 28°18' W 015°23'714.5
2017-Nov-12 01:30N 28°25' W 015°27'714.7
2017-Nov-12 01:01N 28°31' W 015°31'713.9
2017-Nov-12 00:30N 28°36' W 015°37'714.1
2017-Nov-12 00:00N 28°40' W 015°44'714.0
2017-Nov-11 23:30N 28°44' W 015°50'613.0
2017-Nov-11 23:00N 28°48' W 015°56'917.9
2017-Nov-11 22:30N 28°53' W 016°05'917.1
2017-Nov-11 22:00N 28°52' W 016°15'917.5
2017-Nov-11 21:30N 28°51' W 016°24'1617.4
2017-Nov-11 20:35N 28°47' W 016°42'217.5
2017-Nov-11 20:30N 28°47' W 016°44'37 2.5
2017-Nov-11 05:36N 28°40' W 017°26'13 8.1
2017-Nov-11 04:02N 28°40' W 017°12'22 7.7
2017-Nov-11 01:14N 28°40' W 016°47'4 8.0
2017-Nov-11 00:45N 28°40' W 016°43'3 7.9
2017-Nov-11 00:25N 28°40' W 016°40'4 8.0
2017-Nov-10 23:53N 28°41' W 016°35'6 7.8
2017-Nov-10 23:04N 28°41' W 016°28'6 7.8
2017-Nov-10 22:21N 28°41' W 016°21'3 7.8
2017-Nov-10 21:56N 28°41' W 016°17'3 8.0
2017-Nov-10 21:30N 28°40' W 016°13'6 7.0
2017-Nov-10 20:38N 28°39' W 016°07'2 6.8
2017-Nov-10 20:24N 28°38' W 016°05'10 5.8
2017-Nov-10 18:39N 28°29' W 016°10'4 5.6
2017-Nov-10 18:00N 28°29' W 016°14'0 0.5
2017-Nov-10 17:19N 28°28' W 016°15'0 0.0
2017-Nov-10 16:55N 28°28' W 016°15'0 0.0
2017-Nov-10 15:58N 28°28' W 016°15'0 0.0
2017-Nov-10 06:39N 28°29' W 016°14'1 3.6
2017-Nov-10 06:26N 28°29' W 016°14'510.5
2017-Nov-10 06:00N 28°27' W 016°09'511.0
2017-Nov-10 05:30N 28°27' W 016°02'610.7
2017-Nov-10 05:00N 28°27' W 015°56'511.2
2017-Nov-10 04:30N 28°31' W 015°52'611.5
2017-Nov-10 04:00N 28°35' W 015°47'612.1
2017-Nov-10 03:30N 28°40' W 015°42'612.3
2017-Nov-10 03:00N 28°40' W 015°36'612.5
2017-Nov-10 02:30N 28°41' W 015°28'612.2
2017-Nov-10 02:00N 28°42' W 015°22'611.7
2017-Nov-10 01:30N 28°42' W 015°15'611.8
2017-Nov-10 01:00N 28°43' W 015°08'  
Track history (hours):
 
Tides and Currents Weather Stations Pressure Air Temp Water Temp Dewpoint Dewpoint Depression Visibility Wind Speed Wind Dir Waves Ship Positions

Aidasol

Last reported at 2017-Nov-20 00:30 UTC. Time now 2017-Nov-20 17:34 UTC.
Position N 28°14' W 015°24'.

Length 253 m; draft 7.3 m.

Type: Passenger vessel. MMSI: 247302900.

Date/timePositionNaut miles runAvg speedWind from/ knotsBaromVisibWave heightAir tempDewpointWater temp
2017-Nov-20 00:30N 28°14' W 015°24'611.9
2017-Nov-20 00:00N 28°09' W 015°22'3 6.2
2017-Nov-19 23:28N 28°08' W 015°25'0 0.0
2017-Nov-19 22:58N 28°08' W 015°25'0 0.0
2017-Nov-19 22:28N 28°08' W 015°25'0 0.0
2017-Nov-19 22:01N 28°08' W 015°25'0 0.0
2017-Nov-19 21:31N 28°08' W 015°25'0 0.0
2017-Nov-19 21:01N 28°08' W 015°25'0 0.0
2017-Nov-19 20:28N 28°08' W 015°25'0 0.0
2017-Nov-19 19:46N 28°08' W 015°25'0 0.0
2017-Nov-19 19:28N 28°08' W 015°25'0 0.0
2017-Nov-19 18:58N 28°08' W 015°25'0 0.0
2017-Nov-19 18:28N 28°08' W 015°25'0 0.0
2017-Nov-19 18:01N 28°08' W 015°25'0 0.0
2017-Nov-19 17:19N 28°08' W 015°25'0 0.0
2017-Nov-19 17:01N 28°08' W 015°25'0 0.0
2017-Nov-19 16:19N 28°08' W 015°25'0 0.0
2017-Nov-19 16:01N 28°08' W 015°25'0 0.0
2017-Nov-19 15:31N 28°08' W 015°25'0 0.0
2017-Nov-19 15:01N 28°08' W 015°25'0 0.0
2017-Nov-19 14:22N 28°08' W 015°25'0 0.0
2017-Nov-19 13:40N 28°08' W 015°25'0 0.0
2017-Nov-19 13:25N 28°08' W 015°25'0 0.0
2017-Nov-19 12:55N 28°08' W 015°25'0 0.0
2017-Nov-19 12:25N 28°08' W 015°25'0 0.0
2017-Nov-19 11:55N 28°08' W 015°25'0 0.0
2017-Nov-19 11:25N 28°08' W 015°25'0 0.0
2017-Nov-19 10:55N 28°08' W 015°25'0 0.0
2017-Nov-19 10:22N 28°08' W 015°25'0 0.0
2017-Nov-19 09:58N 28°08' W 015°25'0 0.0
2017-Nov-19 09:28N 28°08' W 015°25'0 0.0
2017-Nov-19 08:58N 28°08' W 015°25'0 0.0
2017-Nov-19 08:28N 28°08' W 015°25'0 0.0
2017-Nov-19 07:58N 28°08' W 015°25'0 0.0
2017-Nov-19 07:31N 28°08' W 015°25'0 0.0
2017-Nov-19 06:58N 28°08' W 015°25'0 0.0
2017-Nov-19 06:28N 28°08' W 015°25'0 0.0
2017-Nov-19 06:01N 28°08' W 015°25'0 0.0
2017-Nov-19 05:28N 28°08' W 015°25'0 0.0
2017-Nov-19 05:01N 28°08' W 015°25'0 0.0
2017-Nov-19 04:28N 28°08' W 015°25'0 0.0
2017-Nov-19 03:46N 28°08' W 015°25'0 0.0
2017-Nov-19 03:19N 28°08' W 015°25'0 0.0
2017-Nov-19 02:49N 28°08' W 015°25'0 0.0
2017-Nov-19 02:19N 28°08' W 015°25'0 0.0
2017-Nov-19 01:52N 28°08' W 015°25'0 0.0
2017-Nov-19 01:22N 28°08' W 015°25'0 0.0
2017-Nov-19 00:52N 28°08' W 015°25'0 0.8
2017-Nov-19 00:30N 28°08' W 015°25'2 4.0
2017-Nov-19 00:00N 28°08' W 015°23'612.7
2017-Nov-18 23:30N 28°14' W 015°23'714.7
2017-Nov-18 23:00N 28°17' W 015°31'713.7
2017-Nov-18 22:30N 28°17' W 015°38'4 8.0
2017-Nov-18 22:00N 28°16' W 015°43'4 8.0
2017-Nov-18 21:30N 28°16' W 015°47'4 8.1
2017-Nov-18 21:01N 28°16' W 015°52'4 8.2
2017-Nov-18 20:28N 28°16' W 015°57'4 8.6
2017-Nov-18 20:00N 28°19' W 016°00'11 8.5
2017-Nov-18 18:40N 28°26' W 016°10'1 8.7
2017-Nov-18 18:30N 28°27' W 016°11'3 0.2
2017-Nov-18 06:55N 28°29' W 016°14'511.0
2017-Nov-18 06:26N 28°29' W 016°08'613.9
2017-Nov-18 06:00N 28°35' W 016°04'50 2.1
2017-Nov-17 06:00N 28°44' W 016°60'815.7
2017-Nov-17 05:30N 28°46' W 016°51'916.3
2017-Nov-17 04:56N 28°47' W 016°40'716.3
2017-Nov-17 04:30N 28°48' W 016°32'915.5
2017-Nov-17 03:57N 28°50' W 016°23'1115.5
2017-Nov-17 03:13N 28°51' W 016°10'315.4
2017-Nov-17 03:00N 28°51' W 016°06'815.4
2017-Nov-17 02:30N 28°51' W 015°57'815.4
2017-Nov-17 02:00N 28°51' W 015°48'815.3
2017-Nov-17 01:30N 28°51' W 015°40'815.9
2017-Nov-17 01:00N 28°50' W 015°31'816.1
2017-Nov-17 00:30N 28°50' W 015°22'815.9
2017-Nov-17 00:00N 28°50' W 015°13'815.8
2017-Nov-16 23:29N 28°50' W 015°03'1215.6
2017-Nov-16 22:44N 28°49' W 014°50'1115.7
2017-Nov-16 22:01N 28°49' W 014°37'115.7
2017-Nov-16 21:58N 28°49' W 014°36'1015.8
2017-Nov-16 21:21N 28°49' W 014°25'715.5
2017-Nov-16 20:53N 28°49' W 014°17'615.8
2017-Nov-16 20:30N 28°48' W 014°10'34 4.8
2017-Nov-16 13:20N 28°58' W 013°32'0 0.0
2017-Nov-16 12:56N 28°58' W 013°32'0 0.0
2017-Nov-16 12:26N 28°58' W 013°32'0 0.0
2017-Nov-16 11:38N 28°58' W 013°32'0 0.0
2017-Nov-16 09:23N 28°58' W 013°32'0 0.0
2017-Nov-16 08:53N 28°58' W 013°32'0 0.0
2017-Nov-16 07:17N 28°58' W 013°32'0 1.0
2017-Nov-16 07:00N 28°58' W 013°32'4 7.7
2017-Nov-16 06:30N 28°59' W 013°28'  
2017-Nov-13 02:00N 28°30' W 015°34'4 8.5
2017-Nov-13 01:30N 28°27' W 015°32'4 8.6
2017-Nov-13 01:00N 28°23' W 015°30'4 8.5
2017-Nov-13 00:30N 28°19' W 015°28'4 8.6
2017-Nov-13 00:00N 28°15' W 015°25'4 8.3
2017-Nov-12 23:30N 28°11' W 015°23'4 8.3
2017-Nov-12 23:00N 28°07' W 015°23'2 4.6
2017-Nov-12 22:29N 28°08' W 015°25'0 0.0
2017-Nov-12 21:59N 28°08' W 015°25'0 0.0
2017-Nov-12 21:29N 28°08' W 015°25'0 0.0
2017-Nov-12 20:59N 28°08' W 015°25'0 0.0
2017-Nov-12 20:17N 28°08' W 015°25'0 0.0
2017-Nov-12 19:50N 28°08' W 015°25'0 0.0
2017-Nov-12 19:20N 28°08' W 015°25'0 0.0
2017-Nov-12 18:53N 28°08' W 015°25'0 0.0
2017-Nov-12 18:23N 28°08' W 015°25'0 0.0
2017-Nov-12 17:53N 28°08' W 015°25'0 0.0
2017-Nov-12 17:20N 28°08' W 015°25'0 0.0
2017-Nov-12 16:53N 28°08' W 015°25'0 0.0
2017-Nov-12 16:23N 28°08' W 015°25'0 0.0
2017-Nov-12 15:56N 28°08' W 015°25'0 0.0
2017-Nov-12 15:26N 28°08' W 015°25'0 0.0
2017-Nov-12 14:56N 28°08' W 015°25'0 0.0
2017-Nov-12 14:25N 28°08' W 015°25'0 0.0
2017-Nov-12 13:58N 28°08' W 015°25'0 0.0
2017-Nov-12 13:28N 28°08' W 015°25'0 0.0
2017-Nov-12 12:46N 28°08' W 015°25'0 0.0
2017-Nov-12 12:28N 28°08' W 015°25'0 0.0
2017-Nov-12 11:58N 28°08' W 015°25'0 0.0
2017-Nov-12 11:28N 28°08' W 015°25'0 0.0
2017-Nov-12 10:58N 28°08' W 015°25'0 0.0
2017-Nov-12 10:19N 28°08' W 015°25'0 0.0
2017-Nov-12 09:58N 28°08' W 015°25'0 0.0
2017-Nov-12 09:25N 28°08' W 015°25'0 0.0
2017-Nov-12 09:00N 28°08' W 015°25'0 0.0
2017-Nov-12 08:30N 28°08' W 015°25'0 0.0
2017-Nov-12 08:00N 28°08' W 015°25'0 0.0
2017-Nov-12 07:30N 28°08' W 015°25'0 0.0
2017-Nov-12 07:00N 28°08' W 015°25'0 0.0
2017-Nov-12 06:30N 28°08' W 015°25'0 0.0
2017-Nov-12 06:00N 28°08' W 015°25'0 0.0
2017-Nov-12 05:30N 28°08' W 015°25'0 0.0
2017-Nov-12 05:00N 28°08' W 015°25'0 0.0
2017-Nov-12 04:30N 28°08' W 015°25'0 0.0
2017-Nov-12 04:00N 28°08' W 015°25'0 0.0
2017-Nov-12 03:30N 28°08' W 015°25'1 2.1
2017-Nov-12 03:00N 28°07' W 015°25'5 9.3
2017-Nov-12 02:30N 28°11' W 015°22'713.9
2017-Nov-12 02:00N 28°18' W 015°23'714.5
2017-Nov-12 01:30N 28°25' W 015°27'714.7
2017-Nov-12 01:01N 28°31' W 015°31'713.9
2017-Nov-12 00:30N 28°36' W 015°37'714.1
2017-Nov-12 00:00N 28°40' W 015°44'714.0
2017-Nov-11 23:30N 28°44' W 015°50'613.0
2017-Nov-11 23:00N 28°48' W 015°56'917.9
2017-Nov-11 22:30N 28°53' W 016°05'917.1
2017-Nov-11 22:00N 28°52' W 016°15'917.5
2017-Nov-11 21:30N 28°51' W 016°24'1617.4
2017-Nov-11 20:35N 28°47' W 016°42'217.5
2017-Nov-11 20:30N 28°47' W 016°44'37 2.5
2017-Nov-11 05:36N 28°40' W 017°26'13 8.1
2017-Nov-11 04:02N 28°40' W 017°12'22 7.7
2017-Nov-11 01:14N 28°40' W 016°47'4 8.0
2017-Nov-11 00:45N 28°40' W 016°43'3 7.9
2017-Nov-11 00:25N 28°40' W 016°40'4 8.0
2017-Nov-10 23:53N 28°41' W 016°35'6 7.8
2017-Nov-10 23:04N 28°41' W 016°28'6 7.8
2017-Nov-10 22:21N 28°41' W 016°21'3 7.8
2017-Nov-10 21:56N 28°41' W 016°17'3 8.0
2017-Nov-10 21:30N 28°40' W 016°13'6 7.0
2017-Nov-10 20:38N 28°39' W 016°07'2 6.8
2017-Nov-10 20:24N 28°38' W 016°05'10 5.8
2017-Nov-10 18:39N 28°29' W 016°10'4 5.6
2017-Nov-10 18:00N 28°29' W 016°14'0 0.5
2017-Nov-10 17:19N 28°28' W 016°15'0 0.0
2017-Nov-10 16:55N 28°28' W 016°15'0 0.0
2017-Nov-10 15:58N 28°28' W 016°15'0 0.0
2017-Nov-10 06:39N 28°29' W 016°14'1 3.6
2017-Nov-10 06:26N 28°29' W 016°14'510.5
2017-Nov-10 06:00N 28°27' W 016°09'511.0
2017-Nov-10 05:30N 28°27' W 016°02'610.7
2017-Nov-10 05:00N 28°27' W 015°56'511.2
2017-Nov-10 04:30N 28°31' W 015°52'611.5
2017-Nov-10 04:00N 28°35' W 015°47'612.1
2017-Nov-10 03:30N 28°40' W 015°42'612.3
2017-Nov-10 03:00N 28°40' W 015°36'612.5
2017-Nov-10 02:30N 28°41' W 015°28'612.2
2017-Nov-10 02:00N 28°42' W 015°22'611.7
2017-Nov-10 01:30N 28°42' W 015°15'611.8
2017-Nov-10 01:00N 28°43' W 015°08'  

Dump ship's entire track history